Terminal Aerodrome Forecast
Issued by NWS

Home | Current Version | Previous Version | Graphics & Text | Print | Product List | Glossary Off
Versions: 1 2 3 4 5 6 7 8 9 10 11 12 13 14 15 16 17 18 19 20 21

000
FTUS43 KDDC 212342
TAFHYS
TAF
KHYS 212342Z 2200/2224 07018KT P6SM SCT110
     FM220200 08012KT P6SM BKN100
     FM221200 08010KT P6SM OVC035
     FM222100 13012KT P6SM BKN035
     FM222300 14013KT P6SM BKN025
      AMD NOT SKED=

USA.gov is the U.S. government's official web portal to all federal, state and local government web resources and services.